Time;durP1;ratioP1;P1;durP2;ratioP2;P2;SDS_P1;SDS_P2;PMS_P1;PMS_P2;Temp;Humidity;BMP_temperature;BMP_pressure;BME280_temperature;BME280_humidity;BME280_pressure;Samples;Min_cycle;Max_cycle;Signal;HPM_P1;HPM_P2
2024/01/20 00:00:27;;;;;;;13.00;5.93;;;;;;;;;;5053713;28;20398;-49
2024/01/20 00:02:53;;;;;;;7.00;5.40;;;;;;;;;;5053724;28;20115;-50
2024/01/20 00:05:20;;;;;;;7.80;5.30;;;;;;;;;;5053663;28;20028;-48
2024/01/20 00:07:46;;;;;;;10.33;6.20;;;;;;;;;;5053439;28;20051;-48
2024/01/20 00:10:12;;;;;;;7.15;5.32;;;;;;;;;;5033976;28;20132;-50
2024/01/20 00:12:39;;;;;;;9.03;6.10;;;;;;;;;;5033828;28;20562;-49
2024/01/20 00:15:08;;;;;;;8.93;6.32;;;;;;;;;;5033962;28;20076;-48
2024/01/20 00:17:36;;;;;;;8.18;5.90;;;;;;;;;;5052803;28;20484;-49
2024/01/20 00:20:04;;;;;;;8.43;5.57;;;;;;;;;;5035785;28;20029;-49
2024/01/20 00:22:30;;;;;;;11.75;5.78;;;;;;;;;;5053326;28;20028;-49
2024/01/20 00:25:00;;;;;;;7.90;5.70;;;;;;;;;;5053307;28;20025;-48
2024/01/20 00:27:27;;;;;;;8.65;5.30;;;;;;;;;;5053129;28;20435;-52
2024/01/20 00:29:53;;;;;;;8.20;5.57;;;;;;;;;;5035534;28;20047;-49
2024/01/20 00:32:19;;;;;;;9.67;5.30;;;;;;;;;;5058610;28;20047;-48
2024/01/20 00:34:45;;;;;;;7.63;5.72;;;;;;;;;;5053152;28;20275;-47
2024/01/20 00:37:11;;;;;;;7.68;5.85;;;;;;;;;;5052795;28;20071;-49
2024/01/20 00:39:37;;;;;;;8.88;6.07;;;;;;;;;;5035551;28;20036;-48
2024/01/20 00:42:04;;;;;;;8.02;5.47;;;;;;;;;;5053295;28;20437;-48
2024/01/20 00:44:30;;;;;;;7.50;5.17;;;;;;;;;;5052404;28;20567;-48
2024/01/20 00:46:56;;;;;;;9.68;4.93;;;;;;;;;;5052490;28;20021;-48
2024/01/20 00:49:23;;;;;;;6.45;5.28;;;;;;;;;;5052867;28;20531;-48
2024/01/20 00:51:49;;;;;;;8.45;5.05;;;;;;;;;;5052707;28;20033;-48
2024/01/20 00:54:15;;;;;;;7.80;6.03;;;;;;;;;;5052747;28;20033;-48
2024/01/20 00:56:41;;;;;;;10.55;6.05;;;;;;;;;;5052571;28;20064;-48
2024/01/20 00:59:07;;;;;;;12.55;6.55;;;;;;;;;;5052630;28;20021;-48
2024/01/20 01:01:33;;;;;;;9.32;5.78;;;;;;;;;;5052980;28;20021;-49
2024/01/20 01:04:00;;;;;;;10.77;5.15;;;;;;;;;;5052119;28;20021;-48
2024/01/20 01:06:26;;;;;;;11.15;6.97;;;;;;;;;;5052332;28;20079;-48
2024/01/20 01:08:52;;;;;;;10.77;5.78;;;;;;;;;;5065326;28;20076;-48
2024/01/20 01:11:18;;;;;;;9.75;6.13;;;;;;;;;;5052802;28;20025;-50
2024/01/20 01:13:44;;;;;;;7.22;5.63;;;;;;;;;;5067761;28;20029;-49
2024/01/20 01:16:11;;;;;;;8.38;6.20;;;;;;;;;;5052071;28;20561;-53
2024/01/20 01:18:37;;;;;;;11.13;5.90;;;;;;;;;;5052278;28;20060;-50
2024/01/20 01:21:03;;;;;;;8.20;5.73;;;;;;;;;;5052167;28;20483;-48
2024/01/20 01:23:29;;;;;;;10.73;5.83;;;;;;;;;;5034203;28;20260;-48
2024/01/20 01:25:55;;;;;;;7.40;5.38;;;;;;;;;;5052170;28;20518;-48
2024/01/20 01:28:22;;;;;;;8.30;5.97;;;;;;;;;;5052281;28;20063;-51
2024/01/20 01:30:48;;;;;;;9.68;6.55;;;;;;;;;;5048128;28;20528;-48
2024/01/20 01:33:15;;;;;;;9.35;5.97;;;;;;;;;;5052116;28;20399;-48
2024/01/20 01:35:41;;;;;;;6.40;5.30;;;;;;;;;;5033798;28;20368;-48
2024/01/20 01:38:07;;;;;;;8.07;5.63;;;;;;;;;;5051711;28;20049;-49
2024/01/20 01:40:33;;;;;;;9.47;5.83;;;;;;;;;;5051175;28;20067;-49
2024/01/20 01:43:00;;;;;;;13.27;6.10;;;;;;;;;;5051849;28;20497;-48
2024/01/20 01:45:26;;;;;;;8.45;5.47;;;;;;;;;;5033571;28;20032;-49
2024/01/20 01:47:53;;;;;;;9.17;6.40;;;;;;;;;;5052004;28;20028;-48
2024/01/20 01:50:19;;;;;;;12.40;6.80;;;;;;;;;;5051538;28;20372;-48
2024/01/20 01:52:50;;;;;;;9.80;6.50;;;;;;;;;;5050822;28;20036;-50
2024/01/20 01:55:17;;;;;;;9.48;6.30;;;;;;;;;;5051461;28;20399;-48
2024/01/20 01:57:43;;;;;;;10.93;7.43;;;;;;;;;;5051448;28;20029;-48
2024/01/20 02:00:10;;;;;;;16.75;6.78;;;;;;;;;;5051319;28;20276;-48
2024/01/20 02:02:37;;;;;;;12.02;7.13;;;;;;;;;;5033604;28;20051;-49
2024/01/20 02:05:03;;;;;;;15.00;6.57;;;;;;;;;;5033010;28;20154;-51
2024/01/20 02:07:30;;;;;;;10.00;7.50;;;;;;;;;;5051593;28;20434;-51
2024/01/20 02:09:56;;;;;;;11.00;7.07;;;;;;;;;;5033803;28;20172;-48
2024/01/20 02:12:23;;;;;;;13.00;6.70;;;;;;;;;;5051008;28;20056;-50
2024/01/20 02:14:49;;;;;;;11.40;6.40;;;;;;;;;;5051122;28;20266;-47
2024/01/20 02:17:16;;;;;;;9.73;7.18;;;;;;;;;;5051323;28;20492;-48
2024/01/20 02:19:42;;;;;;;13.23;6.90;;;;;;;;;;5051006;28;20027;-48
2024/01/20 02:22:17;;;;;;;10.43;6.83;;;;;;;;;;5065294;28;20108;-48
2024/01/20 02:24:47;;;;;;;8.52;6.00;;;;;;;;;;5051264;28;20082;-47
2024/01/20 02:27:13;;;;;;;9.85;6.53;;;;;;;;;;5051377;28;20021;-49
2024/01/20 02:29:39;;;;;;;13.93;8.40;;;;;;;;;;5051449;28;20036;-48
2024/01/20 02:32:06;;;;;;;11.93;6.13;;;;;;;;;;5033469;28;20044;-48
2024/01/20 02:34:32;;;;;;;11.45;7.18;;;;;;;;;;5050900;28;20032;-50
2024/01/20 02:36:59;;;;;;;9.13;7.03;;;;;;;;;;5064993;28;20375;-49
2024/01/20 02:39:25;;;;;;;16.27;7.27;;;;;;;;;;5051044;28;20039;-51
2024/01/20 02:41:51;;;;;;;13.07;7.40;;;;;;;;;;5051289;28;20614;-51
2024/01/20 02:44:18;;;;;;;10.77;6.83;;;;;;;;;;5050816;28;20021;-48
2024/01/20 02:46:44;;;;;;;11.55;7.75;;;;;;;;;;5032769;28;20017;-48
2024/01/20 02:49:10;;;;;;;10.13;6.43;;;;;;;;;;5051347;28;20024;-49
2024/01/20 02:51:37;;;;;;;15.45;8.00;;;;;;;;;;5050764;28;20017;-48
2024/01/20 02:54:03;;;;;;;9.00;6.90;;;;;;;;;;5050985;28;20048;-49
2024/01/20 02:56:29;;;;;;;8.40;6.38;;;;;;;;;;5051129;28;20021;-48
2024/01/20 02:58:55;;;;;;;9.73;6.20;;;;;;;;;;5051229;28;20025;-48
2024/01/20 03:01:21;;;;;;;8.93;6.97;;;;;;;;;;5050779;28;20025;-47
2024/01/20 03:03:47;;;;;;;13.23;6.47;;;;;;;;;;5050568;28;20025;-51
2024/01/20 03:06:14;;;;;;;13.30;6.88;;;;;;;;;;5032907;28;20103;-48
2024/01/20 03:08:40;;;;;;;14.43;7.17;;;;;;;;;;5050889;28;20060;-48
2024/01/20 03:11:06;;;;;;;10.40;6.40;;;;;;;;;;5050985;28;20036;-48
2024/01/20 03:13:32;;;;;;;12.32;6.53;;;;;;;;;;5050828;28;20108;-50
2024/01/20 03:15:59;;;;;;;8.75;6.07;;;;;;;;;;5061437;28;20560;-49
2024/01/20 03:18:25;;;;;;;10.13;6.63;;;;;;;;;;5050061;28;20075;-47
2024/01/20 03:20:51;;;;;;;8.30;5.23;;;;;;;;;;5032810;28;20037;-48
2024/01/20 03:23:17;;;;;;;8.05;6.43;;;;;;;;;;5053216;28;20032;-49
2024/01/20 03:25:43;;;;;;;9.27;6.30;;;;;;;;;;5036371;28;20441;-52
2024/01/20 03:28:09;;;;;;;8.77;6.10;;;;;;;;;;5054649;28;20497;-49
2024/01/20 03:30:36;;;;;;;11.60;6.15;;;;;;;;;;5054084;28;20372;-49
2024/01/20 03:33:02;;;;;;;8.80;6.67;;;;;;;;;;5036376;28;20600;-47
2024/01/20 03:35:28;;;;;;;9.07;5.80;;;;;;;;;;5036234;28;20029;-49
2024/01/20 03:37:55;;;;;;;13.27;6.40;;;;;;;;;;5053907;28;20021;-48
2024/01/20 03:40:21;;;;;;;9.13;5.95;;;;;;;;;;5054178;28;20395;-49
2024/01/20 03:42:47;;;;;;;8.73;5.73;;;;;;;;;;5054203;28;20068;-49
2024/01/20 03:45:13;;;;;;;9.60;5.97;;;;;;;;;;5053982;28;20184;-48
2024/01/20 03:47:39;;;;;;;8.40;5.37;;;;;;;;;;5054212;28;20025;-48
2024/01/20 03:50:06;;;;;;;9.02;5.57;;;;;;;;;;5053661;28;20411;-48
2024/01/20 03:52:32;;;;;;;7.97;6.15;;;;;;;;;;5053436;28;20119;-48
2024/01/20 03:54:59;;;;;;;8.57;5.60;;;;;;;;;;5053509;28;20036;-48
2024/01/20 03:57:26;;;;;;;11.55;6.90;;;;;;;;;;5054031;28;20040;-48
2024/01/20 03:59:52;;;;;;;11.13;6.43;;;;;;;;;;5053807;28;20475;-47
2024/01/20 04:02:18;;;;;;;8.27;5.70;;;;;;;;;;5053149;28;20036;-49
2024/01/20 04:04:44;;;;;;;8.87;6.30;;;;;;;;;;5035544;28;20098;-48
2024/01/20 04:07:10;;;;;;;9.87;5.87;;;;;;;;;;5035803;28;20127;-50
2024/01/20 04:09:37;;;;;;;10.27;6.60;;;;;;;;;;5053742;28;20025;-48
2024/01/20 04:12:03;;;;;;;9.10;5.63;;;;;;;;;;5053458;28;20379;-48
2024/01/20 04:14:29;;;;;;;12.23;7.87;;;;;;;;;;5053225;28;20426;-48
2024/01/20 04:16:55;;;;;;;9.93;6.07;;;;;;;;;;5018575;28;20780;-49
2024/01/20 04:19:21;;;;;;;11.48;6.07;;;;;;;;;;5053685;28;20382;-51
2024/01/20 04:21:48;;;;;;;10.27;6.07;;;;;;;;;;5053621;28;20048;-48
2024/01/20 04:24:14;;;;;;;12.90;7.88;;;;;;;;;;5035459;28;20028;-48
2024/01/20 04:26:40;;;;;;;9.73;5.87;;;;;;;;;;5035617;28;20048;-48
2024/01/20 04:29:06;;;;;;;11.52;7.00;;;;;;;;;;5053188;28;20301;-48
2024/01/20 04:31:32;;;;;;;12.13;7.43;;;;;;;;;;5053258;28;20406;-48
2024/01/20 04:33:59;;;;;;;9.97;6.77;;;;;;;;;;5052088;28;20402;-48
2024/01/20 04:36:25;;;;;;;9.83;6.43;;;;;;;;;;5035233;28;20079;-50
2024/01/20 04:38:51;;;;;;;13.60;6.50;;;;;;;;;;5068437;28;20545;-48
2024/01/20 04:41:17;;;;;;;17.60;8.35;;;;;;;;;;5053087;28;20255;-49
2024/01/20 04:43:43;;;;;;;9.13;6.63;;;;;;;;;;5053239;28;20033;-48
2024/01/20 04:46:10;;;;;;;10.60;7.50;;;;;;;;;;5034588;28;20083;-48
2024/01/20 04:48:36;;;;;;;15.33;8.07;;;;;;;;;;5052671;28;20033;-46
2024/01/20 04:51:02;;;;;;;10.53;7.20;;;;;;;;;;5052979;28;20286;-49
2024/01/20 04:53:29;;;;;;;10.25;6.57;;;;;;;;;;5053044;28;20025;-48
2024/01/20 04:55:55;;;;;;;9.03;6.63;;;;;;;;;;5052838;28;20376;-48
2024/01/20 04:58:21;;;;;;;8.77;6.47;;;;;;;;;;5052845;28;20510;-44
2024/01/20 05:00:47;;;;;;;9.00;6.60;;;;;;;;;;5034892;28;20028;-47
2024/01/20 05:03:13;;;;;;;13.73;6.60;;;;;;;;;;5052780;28;20021;-49
2024/01/20 05:05:39;;;;;;;10.57;6.13;;;;;;;;;;5033608;28;20427;-49
2024/01/20 05:08:06;;;;;;;8.57;6.53;;;;;;;;;;5052826;28;20044;-52
2024/01/20 05:10:33;;;;;;;10.63;6.50;;;;;;;;;;5052632;28;20448;-48
2024/01/20 05:12:59;;;;;;;10.32;7.38;;;;;;;;;;5052549;28;20025;-47
2024/01/20 05:15:26;;;;;;;9.10;5.97;;;;;;;;;;5052437;28;20025;-46
2024/01/20 05:17:52;;;;;;;10.10;6.10;;;;;;;;;;5052352;28;20036;-48
2024/01/20 05:20:18;;;;;;;11.75;6.40;;;;;;;;;;5052549;28;20055;-47
2024/01/20 05:22:45;;;;;;;13.27;8.37;;;;;;;;;;5052398;28;20084;-49
2024/01/20 05:25:11;;;;;;;11.57;7.60;;;;;;;;;;5034405;28;20116;-48
2024/01/20 05:27:37;;;;;;;10.03;6.57;;;;;;;;;;5052521;28;20028;-47
2024/01/20 05:30:04;;;;;;;14.30;6.50;;;;;;;;;;5034533;28;20029;-49
2024/01/20 05:32:30;;;;;;;10.25;6.97;;;;;;;;;;5052245;28;20060;-51
2024/01/20 05:34:56;;;;;;;10.63;7.70;;;;;;;;;;5052212;28;20033;-50
2024/01/20 05:37:22;;;;;;;12.23;7.07;;;;;;;;;;5052170;28;20487;-49
2024/01/20 05:39:49;;;;;;;13.63;7.13;;;;;;;;;;5017933;28;20040;-47
2024/01/20 05:42:15;;;;;;;10.17;6.87;;;;;;;;;;5052163;28;20036;-49
2024/01/20 05:44:41;;;;;;;10.93;6.50;;;;;;;;;;5051780;28;20036;-47
2024/01/20 05:47:07;;;;;;;9.70;5.87;;;;;;;;;;5051110;28;20037;-46
2024/01/20 05:49:33;;;;;;;10.00;5.87;;;;;;;;;;5034151;28;20020;-47
2024/01/20 05:51:59;;;;;;;9.07;5.97;;;;;;;;;;5052062;28;20036;-47
2024/01/20 05:54:26;;;;;;;9.90;7.07;;;;;;;;;;5051699;28;20025;-46
2024/01/20 05:56:52;;;;;;;11.48;6.90;;;;;;;;;;5051790;28;20479;-47
2024/01/20 05:59:18;;;;;;;14.47;6.97;;;;;;;;;;5051840;28;20039;-47
2024/01/20 06:01:50;;;;;;;11.98;7.85;;;;;;;;;;5033832;28;20024;-48
2024/01/20 06:04:19;;;;;;;12.20;7.93;;;;;;;;;;5051472;28;20029;-47
2024/01/20 06:06:48;;;;;;;10.13;6.68;;;;;;;;;;5051756;28;20025;-47
2024/01/20 06:09:15;;;;;;;11.27;6.65;;;;;;;;;;5033732;28;20035;-47
2024/01/20 06:11:41;;;;;;;9.73;6.45;;;;;;;;;;5033725;28;20036;-48
2024/01/20 06:14:08;;;;;;;12.75;7.15;;;;;;;;;;5051179;28;20075;-50
2024/01/20 06:16:38;;;;;;;11.48;6.53;;;;;;;;;;5051755;28;20053;-47
2024/01/20 06:19:04;;;;;;;11.00;6.32;;;;;;;;;;5051539;28;20039;-46
2024/01/20 06:21:30;;;;;;;12.03;6.43;;;;;;;;;;5051607;28;20053;-49
2024/01/20 06:23:56;;;;;;;12.95;6.78;;;;;;;;;;5051342;28;20043;-47
2024/01/20 06:26:23;;;;;;;10.40;6.07;;;;;;;;;;5017321;28;20017;-50
2024/01/20 06:28:50;;;;;;;10.53;6.27;;;;;;;;;;5051995;28;20505;-47
2024/01/20 06:31:25;;;;;;;9.63;6.03;;;;;;;;;;5033633;28;20270;-48
2024/01/20 06:33:52;;;;;;;10.32;6.15;;;;;;;;;;5051245;28;20112;-51
2024/01/20 06:36:18;;;;;;;9.45;6.85;;;;;;;;;;5051489;28;20086;-48
2024/01/20 06:38:45;;;;;;;12.52;6.88;;;;;;;;;;5033561;28;20029;-46
2024/01/20 06:41:11;;;;;;;11.43;6.60;;;;;;;;;;5033636;28;20017;-47
2024/01/20 06:43:37;;;;;;;13.93;6.20;;;;;;;;;;5050946;28;20395;-52
2024/01/20 06:46:04;;;;;;;10.50;6.50;;;;;;;;;;5051417;28;20071;-48
2024/01/20 06:48:33;;;;;;;8.85;6.43;;;;;;;;;;5033429;28;20212;-47
2024/01/20 06:51:00;;;;;;;12.35;6.55;;;;;;;;;;5051341;28;20033;-47
2024/01/20 06:53:30;;;;;;;18.85;8.00;;;;;;;;;;5033096;28;20115;-48
2024/01/20 06:55:56;;;;;;;9.68;6.85;;;;;;;;;;5051178;28;20443;-48
2024/01/20 06:58:23;;;;;;;9.18;6.25;;;;;;;;;;5054597;28;20029;-52
2024/01/20 07:00:50;;;;;;;12.73;5.65;;;;;;;;;;5055212;28;20506;-47
2024/01/20 07:03:16;;;;;;;10.55;6.93;;;;;;;;;;5055165;28;20024;-50
2024/01/20 07:05:43;;;;;;;14.43;7.30;;;;;;;;;;5054956;28;20029;-46
2024/01/20 07:08:10;;;;;;;11.25;6.18;;;;;;;;;;5055486;28;20017;-48
2024/01/20 07:10:36;;;;;;;7.68;5.95;;;;;;;;;;5055019;28;20102;-46
2024/01/20 07:13:02;;;;;;;13.10;6.90;;;;;;;;;;5054885;28;20024;-50
2024/01/20 07:15:28;;;;;;;9.48;6.72;;;;;;;;;;5054734;28;20079;-47
2024/01/20 07:17:58;;;;;;;9.43;6.50;;;;;;;;;;5036907;28;20446;-51
2024/01/20 07:20:25;;;;;;;10.82;5.82;;;;;;;;;;5054802;28;20029;-48
2024/01/20 07:22:51;;;;;;;9.68;5.93;;;;;;;;;;5054650;28;20436;-48
2024/01/20 07:25:18;;;;;;;14.35;6.97;;;;;;;;;;5036629;28;20033;-47
2024/01/20 07:27:44;;;;;;;13.10;7.70;;;;;;;;;;5036944;28;20029;-47
2024/01/20 07:30:10;;;;;;;11.00;6.70;;;;;;;;;;5054693;28;20566;-49
2024/01/20 07:32:40;;;;;;;13.07;8.20;;;;;;;;;;5054629;28;20035;-47
2024/01/20 07:35:07;;;;;;;11.18;7.82;;;;;;;;;;5054241;28;20029;-51
2024/01/20 07:37:37;;;;;;;17.20;10.23;;;;;;;;;;5054269;28;20029;-46
2024/01/20 07:40:06;;;;;;;24.98;19.55;;;;;;;;;;5054529;28;20380;-47
2024/01/20 07:42:34;;;;;;;21.25;16.08;;;;;;;;;;5054460;28;20025;-46
2024/01/20 07:45:00;;;;;;;18.25;14.00;;;;;;;;;;5054050;28;20036;-47
2024/01/20 07:47:26;;;;;;;18.47;11.90;;;;;;;;;;5054317;28;20116;-48
2024/01/20 07:49:53;;;;;;;15.48;8.98;;;;;;;;;;5036259;28;20286;-47
2024/01/20 07:52:19;;;;;;;15.07;8.60;;;;;;;;;;5054250;28;20033;-50
2024/01/20 07:54:45;;;;;;;16.93;9.03;;;;;;;;;;5053983;28;20040;-46
2024/01/20 07:57:12;;;;;;;15.03;8.00;;;;;;;;;;5054176;28;20116;-47
2024/01/20 07:59:38;;;;;;;10.43;7.10;;;;;;;;;;5019747;28;20052;-47
2024/01/20 08:02:04;;;;;;;15.20;7.15;;;;;;;;;;5053897;28;20029;-47
2024/01/20 08:04:30;;;;;;;10.15;7.38;;;;;;;;;;5035980;28;20079;-46
2024/01/20 08:06:57;;;;;;;10.50;6.80;;;;;;;;;;5036051;28;20032;-47
2024/01/20 08:09:23;;;;;;;11.40;6.88;;;;;;;;;;5053111;28;20565;-48
2024/01/20 08:11:49;;;;;;;11.48;8.38;;;;;;;;;;5036115;28;20107;-51
2024/01/20 08:14:15;;;;;;;10.43;6.70;;;;;;;;;;5053595;28;20494;-48
2024/01/20 08:16:42;;;;;;;14.20;6.60;;;;;;;;;;5053659;28;20031;-46
2024/01/20 08:19:08;;;;;;;17.20;8.55;;;;;;;;;;5053663;28;20267;-46
2024/01/20 08:21:34;;;;;;;12.10;7.50;;;;;;;;;;5053735;28;20028;-47
2024/01/20 08:24:01;;;;;;;12.27;7.23;;;;;;;;;;5035517;28;20119;-47
2024/01/20 08:26:27;;;;;;;13.40;7.13;;;;;;;;;;5053644;28;20083;-46
2024/01/20 08:28:53;;;;;;;13.67;8.70;;;;;;;;;;5054099;28;20733;-47
2024/01/20 08:31:19;;;;;;;9.57;7.30;;;;;;;;;;5053444;28;20373;-53
2024/01/20 08:33:45;;;;;;;12.97;8.10;;;;;;;;;;5053156;28;20032;-54
2024/01/20 08:36:12;;;;;;;13.40;8.27;;;;;;;;;;5053301;28;20119;-54
2024/01/20 08:38:38;;;;;;;11.67;6.83;;;;;;;;;;5053416;28;20028;-50
2024/01/20 08:41:08;;;;;;;15.87;7.73;;;;;;;;;;5053310;28;20032;-52
2024/01/20 08:43:37;;;;;;;11.75;7.75;;;;;;;;;;5052876;28;20025;-48
2024/01/20 08:46:03;;;;;;;20.58;8.32;;;;;;;;;;5035375;28;20037;-47
2024/01/20 08:48:30;;;;;;;12.03;8.10;;;;;;;;;;5035319;28;20025;-51
2024/01/20 08:50:56;;;;;;;14.25;9.32;;;;;;;;;;5053159;28;20270;-54
2024/01/20 08:53:22;;;;;;;11.00;7.93;;;;;;;;;;5035194;28;20492;-50
2024/01/20 08:55:48;;;;;;;13.85;9.55;;;;;;;;;;5052909;28;20031;-50
2024/01/20 08:58:14;;;;;;;16.10;8.70;;;;;;;;;;5052884;28;20111;-48
2024/01/20 09:00:40;;;;;;;13.15;8.68;;;;;;;;;;5052792;28;20120;-48
2024/01/20 09:03:07;;;;;;;22.92;9.48;;;;;;;;;;5018410;28;20104;-47
2024/01/20 09:05:33;;;;;;;17.65;8.90;;;;;;;;;;5034872;28;20487;-48
2024/01/20 09:07:59;;;;;;;11.47;8.50;;;;;;;;;;5053006;28;20033;-48
2024/01/20 09:10:25;;;;;;;16.93;9.17;;;;;;;;;;5052794;28;20494;-50
2024/01/20 09:12:51;;;;;;;14.35;9.13;;;;;;;;;;5052613;28;20151;-48
2024/01/20 09:15:17;;;;;;;16.43;11.50;;;;;;;;;;5052477;28;20033;-48
2024/01/20 09:17:44;;;;;;;16.80;9.77;;;;;;;;;;5034648;28;20067;-48
2024/01/20 09:20:10;;;;;;;13.65;9.43;;;;;;;;;;5052445;28;20554;-48
2024/01/20 09:22:36;;;;;;;15.57;8.65;;;;;;;;;;5052585;28;20029;-47
2024/01/20 09:25:03;;;;;;;16.30;9.18;;;;;;;;;;5052189;28;20021;-47
2024/01/20 09:27:29;;;;;;;;;;;;;;;;;;5034861;28;20029;-48
2024/01/20 09:29:56;;;;;;;14.77;8.00;;;;;;;;;;5052243;28;20023;-48
2024/01/20 09:32:22;;;;;;;14.35;8.57;;;;;;;;;;5052115;28;20039;-47
2024/01/20 09:34:48;;;;;;;18.30;9.13;;;;;;;;;;5052126;28;20483;-48
2024/01/20 09:37:14;;;;;;;13.00;8.10;;;;;;;;;;5052230;28;20024;-48
2024/01/20 09:39:41;;;;;;;10.80;7.55;;;;;;;;;;5052222;28;20075;-51
2024/01/20 09:42:08;;;;;;;15.43;9.02;;;;;;;;;;5052157;28;20060;-49
2024/01/20 09:44:34;;;;;;;10.98;7.68;;;;;;;;;;5051724;28;20508;-47
2024/01/20 09:47:00;;;;;;;11.90;8.17;;;;;;;;;;5052055;28;20480;-48
2024/01/20 09:49:26;;;;;;;13.23;6.87;;;;;;;;;;5052035;28;20063;-50
2024/01/20 09:51:53;;;;;;;13.80;7.07;;;;;;;;;;5052027;28;20033;-48
2024/01/20 09:54:21;;;;;;;12.98;6.97;;;;;;;;;;5033781;28;20070;-53
2024/01/20 09:56:48;;;;;;;13.52;6.65;;;;;;;;;;5051807;28;20134;-51
2024/01/20 09:59:19;;;;;;;8.13;6.15;;;;;;;;;;5051717;28;20025;-50
2024/01/20 10:01:46;;;;;;;9.43;6.30;;;;;;;;;;5051821;28;20029;-52
2024/01/20 10:04:14;;;;;;;10.93;5.57;;;;;;;;;;5051486;28;20100;-50
2024/01/20 10:06:40;;;;;;;10.10;6.15;;;;;;;;;;5051775;28;20027;-52
2024/01/20 10:09:06;;;;;;;8.80;5.55;;;;;;;;;;5051704;28;20036;-48
2024/01/20 10:11:32;;;;;;;8.18;5.68;;;;;;;;;;5051662;28;20025;-48
2024/01/20 10:13:59;;;;;;;7.27;5.27;;;;;;;;;;5033862;28;20025;-48
2024/01/20 10:16:25;;;;;;;9.33;5.50;;;;;;;;;;5051644;28;20116;-47
2024/01/20 10:18:51;;;;;;;10.02;4.97;;;;;;;;;;5033688;28;20075;-47
2024/01/20 10:21:17;;;;;;;7.03;5.15;;;;;;;;;;5033823;28;20475;-50
2024/01/20 10:23:43;;;;;;;9.47;4.67;;;;;;;;;;5051252;28;20021;-51
2024/01/20 10:26:10;;;;;;;7.32;5.47;;;;;;;;;;5051419;28;20021;-50
2024/01/20 10:28:36;;;;;;;9.50;4.77;;;;;;;;;;5033751;28;20083;-48
2024/01/20 10:31:08;;;;;;;7.03;5.45;;;;;;;;;;5051426;28;20491;-47
2024/01/20 10:33:35;;;;;;;10.55;4.95;;;;;;;;;;5050615;28;20017;-47
2024/01/20 10:36:03;;;;;;;7.57;5.22;;;;;;;;;;5033402;28;20384;-48
2024/01/20 10:38:29;;;;;;;7.25;4.75;;;;;;;;;;5051288;28;20036;-47
2024/01/20 10:40:58;;;;;;;5.63;4.93;;;;;;;;;;5051380;28;20078;-48
2024/01/20 10:43:28;;;;;;;6.20;5.15;;;;;;;;;;5051470;28;20041;-46
2024/01/20 10:46:00;;;;;;;8.65;5.55;;;;;;;;;;5051429;28;20032;-47
2024/01/20 10:48:28;;;;;;;5.80;4.60;;;;;;;;;;5033770;28;20052;-47
2024/01/20 10:51:00;;;;;;;9.50;5.38;;;;;;;;;;5051524;28;20076;-50
2024/01/20 10:53:27;;;;;;;6.88;4.90;;;;;;;;;;5033200;28;20029;-47
2024/01/20 10:55:54;;;;;;;8.30;4.60;;;;;;;;;;5033263;28;20395;-47
2024/01/20 10:58:39;;;;;;;7.68;4.93;;;;;;;;;;5051302;28;20036;-48
2024/01/20 11:01:06;;;;;;;5.70;3.78;;;;;;;;;;5033250;28;20037;-47
2024/01/20 11:03:32;;;;;;;6.03;4.05;;;;;;;;;;5033140;28;20301;-48
2024/01/20 11:05:59;;;;;;;5.55;4.10;;;;;;;;;;5033249;28;20079;-48
2024/01/20 11:08:26;;;;;;;6.85;4.78;;;;;;;;;;5051174;28;20029;-48
2024/01/20 11:10:52;;;;;;;;;;;;;;;;;;5033857;28;20033;-47
2024/01/20 11:13:18;;;;;;;10.07;5.43;;;;;;;;;;5051033;28;19905;-48
2024/01/20 11:15:49;;;;;;;7.68;5.72;;;;;;;;;;5050910;28;20505;-47
2024/01/20 11:18:26;;;;;;;11.80;5.72;;;;;;;;;;5050865;28;20029;-47
2024/01/20 11:20:56;;;;;;;7.75;5.43;;;;;;;;;;5033167;28;20464;-48
2024/01/20 11:23:22;;;;;;;13.70;7.25;;;;;;;;;;5033031;28;20056;-48
2024/01/20 11:25:49;;;;;;;7.10;5.17;;;;;;;;;;5032936;28;20212;-49
2024/01/20 11:28:24;;;;;;;9.70;4.80;;;;;;;;;;5050907;28;20495;-47
2024/01/20 11:30:51;;;;;;;4.70;3.95;;;;;;;;;;5050784;28;20270;-48
2024/01/20 11:33:17;;;;;;;6.32;4.60;;;;;;;;;;5050837;28;20103;-48
2024/01/20 11:35:43;;;;;;;10.67;5.90;;;;;;;;;;5032838;28;20033;-47
2024/01/20 11:38:10;;;;;;;6.13;4.60;;;;;;;;;;5050807;28;20514;-52
2024/01/20 11:40:36;;;;;;;4.55;3.95;;;;;;;;;;5032975;28;20060;-47
2024/01/20 11:43:06;;;;;;;6.85;4.78;;;;;;;;;;5050591;28;20036;-47
2024/01/20 11:45:33;;;;;;;8.25;4.70;;;;;;;;;;5052954;28;20025;-55
2024/01/20 11:47:59;;;;;;;8.70;5.40;;;;;;;;;;5036516;28;20045;-48
2024/01/20 11:50:26;;;;;;;7.63;5.28;;;;;;;;;;5053630;28;20035;-48
2024/01/20 11:52:52;;;;;;;7.28;4.55;;;;;;;;;;5054027;28;20121;-49
2024/01/20 11:55:18;;;;;;;6.90;4.70;;;;;;;;;;5035931;28;20029;-47
2024/01/20 11:57:44;;;;;;;6.47;5.10;;;;;;;;;;5066814;28;20029;-47
2024/01/20 12:00:14;;;;;;;7.30;4.25;;;;;;;;;;5053762;28;20068;-47
2024/01/20 12:02:46;;;;;;;6.30;4.47;;;;;;;;;;5053880;28;20055;-48
2024/01/20 12:05:13;;;;;;;8.38;4.63;;;;;;;;;;5035829;28;20021;-48
2024/01/20 12:07:40;;;;;;;8.83;4.43;;;;;;;;;;5054133;28;20506;-47
2024/01/20 12:10:06;;;;;;;6.30;4.47;;;;;;;;;;5053511;28;20271;-47
2024/01/20 12:12:32;;;;;;;7.27;4.73;;;;;;;;;;5053754;28;20037;-48
2024/01/20 12:14:58;;;;;;;7.00;3.83;;;;;;;;;;5035885;28;20052;-49
2024/01/20 12:17:25;;;;;;;6.18;4.20;;;;;;;;;;5053561;28;20020;-49
2024/01/20 12:19:51;;;;;;;7.35;3.83;;;;;;;;;;5053524;28;20075;-54
2024/01/20 12:22:17;;;;;;;8.73;3.78;;;;;;;;;;5035549;28;20082;-48
2024/01/20 12:24:47;;;;;;;5.53;3.55;;;;;;;;;;5053199;28;20679;-50
2024/01/20 12:27:14;;;;;;;6.25;3.95;;;;;;;;;;5053695;28;20033;-48
2024/01/20 12:29:41;;;;;;;8.38;4.20;;;;;;;;;;5035797;28;20074;-51
2024/01/20 12:32:08;;;;;;;4.85;3.08;;;;;;;;;;5053769;28;20430;-48
2024/01/20 12:34:34;;;;;;;5.97;3.78;;;;;;;;;;5053000;28;20115;-52
2024/01/20 12:37:00;;;;;;;5.95;4.03;;;;;;;;;;5067929;28;20121;-50
2024/01/20 12:39:26;;;;;;;6.68;3.60;;;;;;;;;;5053153;28;20033;-49
2024/01/20 12:41:54;;;;;;;3.50;2.95;;;;;;;;;;5053385;28;20375;-49
2024/01/20 12:44:20;;;;;;;;;;;;;;;;;;5053144;28;20032;-49
2024/01/20 12:46:46;;;;;;;7.68;3.90;;;;;;;;;;5035399;28;20419;-52
2024/01/20 12:49:12;;;;;;;4.82;3.08;;;;;;;;;;5052765;28;20029;-50
2024/01/20 12:51:42;;;;;;;6.82;3.30;;;;;;;;;;5053025;28;20029;-50
2024/01/20 12:54:08;;;;;;;7.65;3.38;;;;;;;;;;5034587;28;20021;-50
2024/01/20 12:56:35;;;;;;;4.88;3.38;;;;;;;;;;5052268;28;20086;-49
2024/01/20 12:59:01;;;;;;;;;;;;;;;;;;5035484;28;20108;-48
2024/01/20 13:01:27;;;;;;;9.25;6.40;;;;;;;;;;5050650;28;19952;-51
2024/01/20 13:03:54;;;;;;;10.67;4.93;;;;;;;;;;5050661;28;20036;-49
2024/01/20 13:06:20;;;;;;;6.10;3.03;;;;;;;;;;5051097;28;20064;-49
2024/01/20 13:08:46;;;;;;;4.03;3.03;;;;;;;;;;5033478;28;20064;-47
2024/01/20 13:11:14;;;;;;;11.30;3.35;;;;;;;;;;5050701;28;20267;-50
2024/01/20 13:13:40;;;;;;;5.75;3.47;;;;;;;;;;5050251;28;20124;-51
2024/01/20 13:16:07;;;;;;;7.47;3.40;;;;;;;;;;5050869;28;20579;-52
2024/01/20 13:18:33;;;;;;;5.07;3.30;;;;;;;;;;5051058;28;20027;-53
2024/01/20 13:20:59;;;;;;;5.35;2.75;;;;;;;;;;5066425;28;20107;-53
2024/01/20 13:23:26;;;;;;;3.25;2.95;;;;;;;;;;5053967;28;20032;-51
2024/01/20 13:25:54;;;;;;;10.77;3.13;;;;;;;;;;5032844;28;20517;-49
2024/01/20 13:28:20;;;;;;;4.43;2.60;;;;;;;;;;5050611;28;20479;-48
2024/01/20 13:30:47;;;;;;;2.87;2.10;;;;;;;;;;5032680;28;20109;-50
2024/01/20 13:33:13;;;;;;;3.87;2.63;;;;;;;;;;5048537;28;20041;-51
2024/01/20 13:35:39;;;;;;;3.73;2.40;;;;;;;;;;5050259;28;20032;-51
2024/01/20 13:38:05;;;;;;;3.35;2.55;;;;;;;;;;5050582;28;20037;-53
2024/01/20 13:40:31;;;;;;;6.53;3.10;;;;;;;;;;5050768;28;20021;-50
2024/01/20 13:42:58;;;;;;;5.13;3.17;;;;;;;;;;5050067;28;20033;-49
2024/01/20 13:45:24;;;;;;;4.55;2.40;;;;;;;;;;5049674;28;20021;-49
2024/01/20 13:47:50;;;;;;;3.57;2.73;;;;;;;;;;5050353;28;20025;-49
2024/01/20 13:50:17;;;;;;;5.20;2.53;;;;;;;;;;5050540;28;20079;-51
2024/01/20 13:52:43;;;;;;;4.07;2.60;;;;;;;;;;5050587;28;20491;-50
2024/01/20 13:55:09;;;;;;;6.45;2.42;;;;;;;;;;5032808;28;20029;-54
2024/01/20 13:57:35;;;;;;;2.53;2.13;;;;;;;;;;5050495;28;20499;-49
2024/01/20 14:00:02;;;;;;;3.17;2.87;;;;;;;;;;5050306;28;20025;-51
2024/01/20 14:02:33;;;;;;;4.25;2.35;;;;;;;;;;5021449;28;20025;-51
2024/01/20 14:05:02;;;;;;;4.03;2.60;;;;;;;;;;5053508;28;20053;-52
2024/01/20 14:07:28;;;;;;;4.72;2.53;;;;;;;;;;5049308;28;20032;-49
2024/01/20 14:09:54;;;;;;;3.67;2.83;;;;;;;;;;5049959;28;20033;-52
2024/01/20 14:12:21;;;;;;;8.03;3.60;;;;;;;;;;5049975;28;20398;-50
2024/01/20 14:14:47;;;;;;;5.65;2.63;;;;;;;;;;5049783;28;20041;-49
2024/01/20 14:17:13;;;;;;;3.93;3.20;;;;;;;;;;5049851;28;20040;-52
2024/01/20 14:19:40;;;;;;;5.47;3.13;;;;;;;;;;5065351;28;20052;-50
2024/01/20 14:22:06;;;;;;;;;;;;;;;;;;5050317;28;20506;-50
2024/01/20 14:24:32;;;;;;;3.83;2.65;;;;;;;;;;5049614;28;20042;-49
2024/01/20 14:26:58;;;;;;;3.03;2.25;;;;;;;;;;5015466;28;20111;-49
2024/01/20 14:29:25;;;;;;;4.47;2.40;;;;;;;;;;5031930;28;20064;-49
2024/01/20 14:31:52;;;;;;;2.80;2.50;;;;;;;;;;5047729;28;20033;-48
2024/01/20 14:34:18;;;;;;;;;;;;;;;;;;5050147;28;20550;-57